Time;durP1;ratioP1;P1;durP2;ratioP2;P2;SDS_P1;SDS_P2;PMS_P1;PMS_P2;Temp;Humidity;BMP_temperature;BMP_pressure;BME280_temperature;BME280_humidity;BME280_pressure;Samples;Min_cycle;Max_cycle;Signal;HPM_P1;HPM_P2
2021/12/23 00:00:58;;;;;;;17.50;5.77;;;;;;;-6.82;62.50;101740.00;126233;1099;104195;-79
2021/12/23 00:03:27;;;;;;;15.17;5.97;;;;;;;-6.83;61.99;101741.65;126213;1099;104139;-79
2021/12/23 00:05:57;;;;;;;16.10;5.87;;;;;;;-6.83;62.50;101741.65;126086;1098;104271;-80
2021/12/23 00:08:25;;;;;;;15.97;5.80;;;;;;;-6.83;62.41;101745.85;126043;1099;104143;-80
2021/12/23 00:10:54;;;;;;;16.57;5.63;;;;;;;-6.85;62.61;101744.75;126020;1098;104194;-80
2021/12/23 00:13:23;;;;;;;17.53;5.97;;;;;;;-6.86;62.73;101756.58;126057;1099;104278;-80
2021/12/23 00:16:03;;;;;;;17.40;5.93;;;;;;;-6.89;62.51;101752.03;125971;1099;104207;-80
2021/12/23 00:18:46;;;;;;;17.17;6.03;;;;;;;-6.90;61.70;101755.30;126096;1099;104137;-79
2021/12/23 00:24:02;;;;;;;19.73;6.47;;;;;;;-6.96;61.96;101757.08;126246;1099;104146;-78
2021/12/23 00:26:32;;;;;;;18.17;5.63;;;;;;;-6.98;61.79;101755.98;126295;1099;104219;-79
2021/12/23 00:29:02;;;;;;;18.83;6.03;;;;;;;-6.99;62.44;101760.90;126344;1099;104168;-79
2021/12/23 00:31:33;;;;;;;15.93;5.80;;;;;;;-7.01;62.46;101758.16;126261;1099;104156;-79
2021/12/23 00:34:01;;;;;;;16.60;6.45;;;;;;;-7.03;61.86;101759.58;126363;1099;104144;-79
2021/12/23 00:36:30;;;;;;;15.53;5.63;;;;;;;-7.03;62.55;101759.58;126324;1099;103983;-79
2021/12/23 00:39:01;;;;;;;15.70;5.57;;;;;;;-7.02;61.81;101756.31;126366;1099;104149;-79
2021/12/23 00:41:32;;;;;;;16.10;5.30;;;;;;;-7.00;62.50;101764.16;126176;1099;104192;-79
2021/12/23 00:44:05;;;;;;;16.80;5.97;;;;;;;-7.03;61.84;101759.58;126355;1099;104159;-79
2021/12/23 00:46:34;;;;;;;20.83;5.97;;;;;;;-7.01;62.38;101760.70;126292;1099;104274;-79
2021/12/23 00:49:05;;;;;;;18.93;5.97;;;;;;;-7.01;61.45;101765.81;126306;1099;104142;-79
2021/12/23 00:51:36;;;;;;;15.33;5.63;;;;;;;-7.00;61.89;101759.95;126261;1099;104277;-79
2021/12/23 00:54:05;;;;;;;14.90;5.43;;;;;;;-7.01;61.38;101758.16;126133;1099;104222;-80
2021/12/23 00:56:36;;;;;;;14.40;5.07;;;;;;;-7.03;62.40;101759.58;126330;1099;104248;-79
2021/12/23 00:59:08;;;;;;;15.00;4.83;;;;;;;-7.05;61.48;101761.03;126274;1099;104200;-79
2021/12/23 01:01:38;;;;;;;18.13;5.43;;;;;;;-7.08;61.86;101759.00;126193;1099;104294;-79
2021/12/23 01:04:07;;;;;;;16.97;6.00;;;;;;;-7.10;62.44;101759.55;126300;1099;104169;-79
2021/12/23 01:06:39;;;;;;;15.87;6.10;;;;;;;-7.12;62.61;101760.97;126352;1099;104724;-79
2021/12/23 01:09:11;;;;;;;18.60;5.50;;;;;;;-7.14;61.83;101762.42;125946;1099;104200;-79
2021/12/23 01:11:41;;;;;;;17.47;5.40;;;;;;;-7.16;62.31;101752.03;126301;1099;104216;-79
2021/12/23 01:14:27;;;;;;;16.47;5.63;;;;;;;-7.18;62.02;101750.93;126273;1099;104200;-79
2021/12/23 01:17:28;;;;;;;17.90;5.53;;;;;;;-7.20;62.54;101751.45;126320;1099;104625;-79
2021/12/23 01:20:02;;;;;;;15.40;5.93;;;;;;;-7.23;62.05;101754.52;126197;1099;104168;-79
2021/12/23 01:22:30;;;;;;;17.97;5.60;;;;;;;-7.25;61.32;101748.31;126284;1099;104126;-79
2021/12/23 01:24:59;;;;;;;15.93;5.63;;;;;;;-7.26;61.34;101755.06;126295;1099;104153;-79
2021/12/23 01:27:30;;;;;;;18.53;6.23;;;;;;;-7.29;62.40;101757.23;126219;1099;104275;-80
2021/12/23 01:30:02;;;;;;;15.43;5.40;;;;;;;-7.32;62.79;101755.91;126117;1099;104254;-80
2021/12/23 01:32:30;;;;;;;18.67;6.13;;;;;;;-7.33;61.27;101761.75;125238;1099;104683;-80
2021/12/23 01:34:59;;;;;;;16.17;5.77;;;;;;;-7.34;62.47;101763.36;126074;1098;104140;-80
2021/12/23 01:37:27;;;;;;;14.37;5.40;;;;;;;-7.34;61.83;101759.91;126061;1099;104175;-79
2021/12/23 01:39:57;;;;;;;18.05;6.00;;;;;;;-7.35;61.38;101761.55;126017;1099;104245;-79
2021/12/23 01:42:26;;;;;;;15.50;5.27;;;;;;;-7.35;62.51;101764.11;126043;1099;104153;-80
2021/12/23 01:44:54;;;;;;;16.83;6.20;;;;;;;-7.36;61.70;101761.36;126061;1099;104146;-80
2021/12/23 01:47:23;;;;;;;17.10;5.60;;;;;;;-7.37;61.31;101757.88;126056;1099;104274;-80
2021/12/23 01:49:54;;;;;;;18.47;5.37;;;;;;;-7.37;61.66;101755.32;126096;1099;104239;-80
2021/12/23 01:52:25;;;;;;;15.13;5.13;;;;;;;-7.38;61.74;101756.06;126241;1099;104221;-79
2021/12/23 01:54:54;;;;;;;16.40;6.00;;;;;;;-7.39;61.61;101751.67;125362;1099;104178;-79
2021/12/23 01:57:23;;;;;;;21.00;5.83;;;;;;;-7.42;62.31;101757.33;125246;1102;104181;-79
2021/12/23 01:59:52;;;;;;;18.07;5.97;;;;;;;-7.45;61.77;101769.69;125138;1103;104156;-79
2021/12/23 02:02:24;;;;;;;16.67;5.60;;;;;;;-7.49;62.14;101751.25;125146;1101;104332;-80
2021/12/23 02:04:53;;;;;;;20.27;5.90;;;;;;;-7.52;62.03;101755.95;125133;1102;104172;-79
2021/12/23 02:07:22;;;;;;;19.50;6.23;;;;;;;-7.56;61.50;101751.17;125141;1102;104762;-79
2021/12/23 02:09:50;;;;;;;19.07;6.33;;;;;;;-7.57;61.20;101759.53;125192;1102;104303;-79
2021/12/23 02:12:19;;;;;;;21.20;6.67;;;;;;;-7.61;62.25;101754.05;125251;1102;104328;-78
2021/12/23 02:14:48;;;;;;;22.37;6.90;;;;;;;-7.65;61.21;101753.45;125306;1099;104405;-79
2021/12/23 02:17:17;;;;;;;19.57;7.27;;;;;;;-7.68;61.17;101758.16;125266;1102;104178;-79
2021/12/23 02:19:49;;;;;;;21.97;7.10;;;;;;;-7.72;62.21;101751.77;125280;1102;104268;-79
2021/12/23 02:22:17;;;;;;;22.40;6.87;;;;;;;-7.77;62.73;101751.18;125202;1099;105419;-79
2021/12/23 02:24:46;;;;;;;28.30;8.07;;;;;;;-7.79;61.24;101755.17;125262;1099;104300;-78
2021/12/23 02:27:15;;;;;;;22.30;7.37;;;;;;;-7.82;61.23;101761.48;125338;1099;104210;-79
2021/12/23 02:29:46;;;;;;;20.03;6.80;;;;;;;-7.85;62.82;101768.74;126081;1099;104146;-79
2021/12/23 02:32:19;;;;;;;25.73;6.73;;;;;;;-7.87;61.84;101767.64;126283;1099;104887;-79
2021/12/23 02:34:51;;;;;;;26.70;8.43;;;;;;;-7.89;62.79;101771.64;126257;1099;104283;-77
2021/12/23 02:37:22;;;;;;;27.70;9.80;;;;;;;-7.88;61.95;101768.34;126331;1099;104175;-78
2021/12/23 02:39:50;;;;;;;24.33;8.30;;;;;;;-7.87;62.04;101766.00;126343;1099;104188;-78
2021/12/23 02:42:24;;;;;;;19.47;6.83;;;;;;;-7.88;61.22;101764.19;126274;1099;104150;-78
2021/12/23 02:44:54;;;;;;;19.25;7.05;;;;;;;-7.89;61.89;101771.64;126338;1099;104277;-77
2021/12/23 02:47:23;;;;;;;22.57;7.00;;;;;;;-7.89;62.82;101767.45;125419;1102;104176;-77
2021/12/23 02:49:53;;;;;;;18.37;6.70;;;;;;;-7.87;62.09;101762.55;126351;1099;104152;-77
2021/12/23 02:52:21;;;;;;;19.73;6.60;;;;;;;-7.86;61.88;101765.29;125381;1099;104660;-77
2021/12/23 02:54:56;;;;;;;20.00;7.10;;;;;;;-7.83;62.58;101767.33;126264;1099;104278;-77
2021/12/23 02:57:25;;;;;;;19.93;7.03;;;;;;;-7.83;61.87;101763.13;126356;1098;104140;-77
2021/12/23 02:59:54;;;;;;;19.67;7.30;;;;;;;-7.84;61.20;101768.94;126282;1099;104268;-77
2021/12/23 03:02:26;;;;;;;24.47;7.67;;;;;;;-7.83;62.80;101767.33;126279;1098;104143;-78
2021/12/23 03:04:55;;;;;;;21.80;7.47;;;;;;;-7.83;62.93;101769.88;126324;1099;104159;-78
2021/12/23 03:07:26;;;;;;;28.17;7.23;;;;;;;-7.83;61.38;101768.23;126280;1099;104304;-78
2021/12/23 03:09:55;;;;;;;22.43;7.30;;;;;;;-7.83;62.80;101768.23;126352;1099;104162;-78
2021/12/23 03:12:24;;;;;;;22.67;7.93;;;;;;;-7.82;62.27;101761.48;126299;1099;104153;-78
2021/12/23 03:14:53;;;;;;;22.53;7.50;;;;;;;-7.83;62.92;101764.78;126284;1099;104823;-78
2021/12/23 03:17:22;;;;;;;21.73;7.73;;;;;;;-7.85;61.46;101762.03;126294;1099;104376;-79
2021/12/23 03:19:52;;;;;;;22.13;7.83;;;;;;;-7.84;61.74;101766.39;126275;1098;104312;-78
2021/12/23 03:22:21;;;;;;;20.90;7.00;;;;;;;-7.84;61.41;101773.13;126322;1099;104219;-78
2021/12/23 03:24:51;;;;;;;20.53;7.20;;;;;;;-7.87;62.20;101771.09;126244;1099;104198;-79
2021/12/23 03:27:21;;;;;;;20.13;6.93;;;;;;;-7.90;61.94;101773.28;126360;1099;104140;-79
2021/12/23 03:29:51;;;;;;;20.60;6.80;;;;;;;-7.96;62.49;101767.39;126317;1099;104290;-79
2021/12/23 03:32:20;;;;;;;22.40;6.70;;;;;;;-8.02;61.33;101769.14;126235;1099;104312;-79
2021/12/23 03:34:48;;;;;;;22.40;7.10;;;;;;;-8.07;61.55;101771.09;126283;1099;104143;-79
2021/12/23 03:37:22;;;;;;;19.90;6.83;;;;;;;-8.13;61.95;101770.30;126236;1099;104198;-80
2021/12/23 03:39:53;;;;;;;19.15;6.22;;;;;;;-8.17;62.63;101773.16;126258;1099;104172;-80
2021/12/23 03:42:24;;;;;;;20.70;6.27;;;;;;;-8.19;62.77;101774.60;126215;1099;104823;-79
2021/12/23 03:44:53;;;;;;;19.83;6.97;;;;;;;-8.23;61.71;101778.36;126219;1099;104239;-79
2021/12/23 03:47:23;;;;;;;23.03;7.80;;;;;;;-8.26;62.11;101782.14;126312;1099;104146;-79
2021/12/23 03:49:51;;;;;;;23.70;7.77;;;;;;;-8.27;62.46;101780.30;126317;1099;104140;-79
2021/12/23 03:52:21;;;;;;;20.23;6.77;;;;;;;-8.29;61.35;101776.66;126308;1099;104213;-79
2021/12/23 03:54:50;;;;;;;24.67;7.17;;;;;;;-8.33;61.92;101778.80;126268;1099;105508;-79
2021/12/23 03:57:19;;;;;;;20.70;7.13;;;;;;;-8.38;61.83;101783.98;126263;1098;104187;-79
2021/12/23 03:59:48;;;;;;;22.53;7.07;;;;;;;-8.41;62.43;101778.50;126241;1099;104146;-79
2021/12/23 04:02:18;;;;;;;22.17;7.00;;;;;;;-8.42;62.93;101782.69;126092;1099;104220;-80
2021/12/23 04:04:47;;;;;;;21.63;6.97;;;;;;;-8.43;62.18;101783.42;126113;1099;104166;-79
2021/12/23 04:07:16;;;;;;;17.40;6.60;;;;;;;-8.47;61.72;101781.21;126211;1099;104175;-79
2021/12/23 04:09:47;;;;;;;22.53;7.83;;;;;;;-8.50;62.05;101781.71;126169;1099;104141;-79
2021/12/23 04:12:16;;;;;;;22.27;6.87;;;;;;;-8.53;62.36;101781.31;126196;1098;104150;-79
2021/12/23 04:14:45;;;;;;;21.97;7.67;;;;;;;-8.54;61.91;101784.59;126195;1099;104137;-78
2021/12/23 04:17:16;;;;;;;23.17;7.77;;;;;;;-8.55;62.18;101792.03;126322;1099;104146;-78
2021/12/23 04:19:49;;;;;;;21.27;7.27;;;;;;;-8.56;62.99;101790.18;126290;1099;104364;-78
2021/12/23 04:22:17;;;;;;;21.17;7.27;;;;;;;-8.59;61.84;101797.41;126070;1099;104162;-78
2021/12/23 04:24:46;;;;;;;21.47;7.30;;;;;;;-8.61;61.93;101793.77;125995;1098;104168;-78
2021/12/23 04:27:16;;;;;;;19.50;7.63;;;;;;;-8.62;61.86;101789.37;126049;1099;104193;-79
2021/12/23 04:29:50;;;;;;;20.80;7.50;;;;;;;-8.60;62.37;101803.20;126129;1098;104223;-79
2021/12/23 04:32:18;;;;;;;;;;;;;;;-8.61;61.55;101796.30;126174;1099;104312;-78
2021/12/23 04:34:46;;;;;;;23.57;7.87;;;;;;;-8.66;61.93;101800.79;126007;1099;104147;-79
2021/12/23 04:37:17;;;;;;;28.90;7.63;;;;;;;-8.68;61.87;101798.05;126210;1099;104146;-79
2021/12/23 04:39:46;;;;;;;23.03;7.70;;;;;;;-8.69;62.16;101798.74;126310;1099;104159;-78
2021/12/23 04:42:14;;;;;;;24.30;7.30;;;;;;;-8.69;62.65;101803.83;126299;1099;104195;-78
2021/12/23 04:44:43;;;;;;;22.83;7.30;;;;;;;-8.71;62.32;101804.33;126298;1099;104289;-78
2021/12/23 04:47:11;;;;;;;21.47;7.47;;;;;;;-8.73;61.96;101801.58;126310;1099;104290;-78
2021/12/23 04:49:43;;;;;;;24.57;7.53;;;;;;;-8.73;62.07;101803.22;126335;1099;104149;-77
2021/12/23 04:52:11;;;;;;;19.97;6.83;;;;;;;-8.75;62.75;101804.66;126338;1099;104155;-77
2021/12/23 04:54:40;;;;;;;21.47;7.30;;;;;;;-8.78;62.26;101794.98;126278;1099;104277;-78
2021/12/23 04:57:08;;;;;;;21.30;7.33;;;;;;;-8.78;62.31;101788.98;126320;1099;104581;-77
2021/12/23 04:59:37;;;;;;;23.33;7.57;;;;;;;-8.79;62.96;101785.50;126299;1099;104198;-77
2021/12/23 05:02:07;;;;;;;19.27;7.47;;;;;;;-8.79;63.28;101787.14;126325;1099;104172;-77
2021/12/23 05:04:36;;;;;;;24.30;7.53;;;;;;;-8.81;63.36;101789.48;126331;1099;104150;-77
2021/12/23 05:07:06;;;;;;;19.53;6.70;;;;;;;-8.80;62.35;101791.33;126306;1099;104160;-77
2021/12/23 05:09:35;;;;;;;22.13;7.03;;;;;;;-8.82;62.79;101795.27;126315;1099;104281;-77
2021/12/23 05:12:04;;;;;;;24.90;7.80;;;;;;;-8.83;62.29;101800.16;126299;1099;104137;-77
2021/12/23 05:14:33;;;;;;;25.97;7.50;;;;;;;-8.84;63.22;101804.34;126358;1099;104354;-77
2021/12/23 05:17:01;;;;;;;27.33;8.60;;;;;;;-8.84;63.30;101817.06;126274;1099;104150;-78
2021/12/23 05:19:30;;;;;;;23.73;7.97;;;;;;;-8.85;62.56;101810.13;126320;1099;104178;-78
2021/12/23 05:21:58;;;;;;;24.27;8.17;;;;;;;-8.84;63.08;101816.16;126344;1099;104159;-79
2021/12/23 05:24:27;;;;;;;21.00;7.83;;;;;;;-8.84;63.66;101816.16;125844;1099;104655;-79
2021/12/23 05:26:55;;;;;;;23.05;7.55;;;;;;;-8.84;62.03;101816.16;126271;1099;104236;-79
2021/12/23 05:29:25;;;;;;;24.23;8.40;;;;;;;-8.86;63.49;101823.59;126281;1099;104245;-78
2021/12/23 05:31:54;;;;;;;23.23;8.07;;;;;;;-8.87;62.57;101816.66;126313;1099;105323;-78
2021/12/23 05:34:22;;;;;;;21.80;8.03;;;;;;;-8.88;62.41;101825.92;126041;1099;104178;-79
2021/12/23 05:36:51;;;;;;;28.23;7.80;;;;;;;-8.84;62.01;101826.33;125873;1099;104146;-78
2021/12/23 05:39:21;;;;;;;28.30;9.40;;;;;;;-8.82;62.16;101830.89;126226;1098;104633;-79
2021/12/23 05:41:49;;;;;;;31.80;9.60;;;;;;;-8.78;63.62;101828.06;125597;1099;104252;-80
2021/12/23 05:44:18;;;;;;;25.83;8.53;;;;;;;-8.74;62.82;101829.37;125896;1099;104255;-80
2021/12/23 05:46:47;;;;;;;22.53;7.73;;;;;;;-8.74;62.14;101835.40;125782;1099;104240;-81
2021/12/23 05:49:15;;;;;;;22.57;7.93;;;;;;;-8.72;62.19;101833.97;125874;1099;104188;-81
2021/12/23 05:51:44;;;;;;;20.67;7.53;;;;;;;-8.72;62.37;101827.97;125785;1099;104172;-81
2021/12/23 05:54:15;;;;;;;22.40;8.60;;;;;;;-8.72;62.69;101833.05;125913;1099;104238;-81
2021/12/23 05:56:47;;;;;;;21.70;7.50;;;;;;;-8.71;62.11;101842.50;125575;1099;104140;-80
2021/12/23 05:59:15;;;;;;;22.25;7.55;;;;;;;-8.69;63.38;101839.45;126123;1099;104223;-81
2021/12/23 06:01:44;;;;;;;23.93;8.03;;;;;;;-8.65;62.81;101840.77;126021;1099;104143;-79
2021/12/23 06:04:12;;;;;;;23.90;7.90;;;;;;;-8.62;63.74;101856.45;126002;1098;104767;-79
2021/12/23 06:06:45;;;;;;;20.00;6.80;;;;;;;-8.61;63.23;101860.84;125889;1099;104165;-77
2021/12/23 06:09:13;;;;;;;25.77;8.20;;;;;;;-8.62;63.59;101869.17;126004;1099;104147;-77
2021/12/23 06:11:45;;;;;;;23.50;7.30;;;;;;;-8.64;63.40;101862.07;126054;1099;104155;-78
2021/12/23 06:14:16;;;;;;;22.70;7.53;;;;;;;-8.63;63.29;101861.34;126158;1099;104149;-78
2021/12/23 06:16:45;;;;;;;23.53;8.27;;;;;;;-8.67;62.51;101858.38;126161;1099;104172;-77
2021/12/23 06:19:14;;;;;;;24.73;7.87;;;;;;;-8.65;62.95;101865.31;125240;1102;104437;-77
2021/12/23 06:21:43;;;;;;;22.23;7.97;;;;;;;-8.65;62.43;101866.22;125231;1099;104226;-78
2021/12/23 06:24:24;;;;;;;22.73;8.33;;;;;;;-8.64;62.74;101865.52;125259;1099;104157;-77
2021/12/23 06:26:53;;;;;;;24.17;8.20;;;;;;;-8.62;62.45;101870.81;125107;1099;104392;-77
2021/12/23 06:29:22;;;;;;;27.33;8.60;;;;;;;-8.58;62.71;101867.98;125158;1099;104456;-78
2021/12/23 06:31:51;;;;;;;28.30;9.80;;;;;;;-8.53;63.26;101861.86;125104;1099;104359;-76
2021/12/23 06:34:19;;;;;;;23.40;8.60;;;;;;;-8.46;63.52;101856.88;125110;1099;104386;-77
2021/12/23 06:36:49;;;;;;;23.90;8.57;;;;;;;-8.42;63.26;101861.61;124973;1102;104396;-77
2021/12/23 06:39:18;;;;;;;22.73;7.80;;;;;;;-8.37;63.56;101860.58;125017;1102;106108;-78
2021/12/23 06:41:47;;;;;;;23.60;8.83;;;;;;;-8.30;62.72;101859.78;125028;1102;104348;-78
2021/12/23 06:44:15;;;;;;;25.57;9.17;;;;;;;-8.25;64.10;101865.48;124927;1102;104424;-78
2021/12/23 06:46:44;;;;;;;29.20;10.43;;;;;;;-8.24;63.96;101860.59;124988;1102;104363;-77
2021/12/23 06:49:18;;;;;;;24.52;8.18;;;;;;;-8.19;63.32;101858.64;125062;1102;118967;-78
2021/12/23 06:51:49;;;;;;;28.93;9.67;;;;;;;-8.17;62.85;101858.11;125059;1102;104338;-78
2021/12/23 06:54:18;;;;;;;22.23;8.77;;;;;;;-8.12;64.17;101856.16;125095;1102;104326;-78
2021/12/23 06:56:47;;;;;;;28.97;10.90;;;;;;;-8.09;63.49;101861.66;125956;1099;104227;-79
2021/12/23 06:59:16;;;;;;;23.30;9.55;;;;;;;-8.08;64.46;101860.95;125912;1099;104303;-77
2021/12/23 07:01:47;;;;;;;29.33;10.57;;;;;;;-8.09;63.60;101853.12;125438;1099;104274;-78
2021/12/23 07:04:17;;;;;;;30.60;12.73;;;;;;;-8.08;63.51;101854.96;125388;1099;102881;-79
2021/12/23 07:06:57;;;;;;;25.10;9.80;;;;;;;-8.04;63.83;101855.56;125964;1099;104239;-78
2021/12/23 07:09:26;;;;;;;31.00;11.60;;;;;;;-7.95;64.37;101858.38;125765;1099;104169;-78
2021/12/23 07:11:57;;;;;;;35.30;11.53;;;;;;;-7.86;64.30;101859.58;125489;1099;104248;-79
2021/12/23 07:14:31;;;;;;;27.63;10.67;;;;;;;-7.77;63.81;101855.67;125760;1099;104166;-79
2021/12/23 07:16:59;;;;;;;27.70;10.37;;;;;;;-7.77;63.58;101854.77;125767;1099;104304;-80
2021/12/23 07:19:33;;;;;;;28.67;11.73;;;;;;;-7.77;64.10;101850.58;125693;1099;104174;-79
2021/12/23 07:22:08;;;;;;;30.52;11.97;;;;;;;-7.76;62.79;101851.48;125820;1099;104281;-79
2021/12/23 07:24:41;;;;;;;25.83;10.17;;;;;;;-7.69;64.43;101854.12;125755;1099;104294;-79
2021/12/23 07:27:12;;;;;;;30.00;10.10;;;;;;;-7.63;64.10;101854.01;124905;1099;104575;-79
2021/12/23 07:29:42;;;;;;;27.77;10.03;;;;;;;-7.62;63.19;101854.20;124947;1102;104153;-78
2021/12/23 07:32:12;;;;;;;27.07;9.30;;;;;;;-7.57;63.49;101854.80;124993;1099;104207;-77
2021/12/23 07:34:42;;;;;;;26.53;10.03;;;;;;;-7.55;63.76;101857.55;125664;1099;104211;-78
2021/12/23 07:37:15;;;;;;;27.55;10.60;;;;;;;-7.52;62.71;101851.20;125032;1102;104213;-78
2021/12/23 07:39:48;;;;;;;31.83;11.27;;;;;;;-7.47;64.13;101852.70;125066;1099;104952;-79
2021/12/23 07:42:19;;;;;;;26.03;9.83;;;;;;;-7.42;63.72;101861.88;125072;1099;104217;-79
2021/12/23 07:44:52;;;;;;;29.67;11.03;;;;;;;-7.37;63.98;101844.58;124995;1099;104181;-78
2021/12/23 07:47:22;;;;;;;28.43;10.63;;;;;;;-7.32;63.97;101851.21;125029;1099;104197;-77
2021/12/23 07:50:01;;;;;;;26.43;10.07;;;;;;;-7.30;64.19;101861.61;124997;1099;104141;-77
2021/12/23 07:52:34;;;;;;;30.87;11.17;;;;;;;-7.26;62.85;101854.55;125097;1099;104310;-80
2021/12/23 07:55:13;;;;;;;30.83;11.33;;;;;;;-7.18;64.32;101847.88;124973;1102;104051;-80
2021/12/23 07:57:54;;;;;;;28.30;9.93;;;;;;;-7.09;62.83;101860.86;125000;1099;104595;-79
2021/12/23 08:00:23;;;;;;;34.37;12.30;;;;;;;-7.05;63.24;101857.99;125721;1099;104293;-79
2021/12/23 08:02:52;;;;;;;32.07;12.37;;;;;;;-7.03;63.42;101858.19;125833;1099;104245;-77
2021/12/23 08:05:22;;;;;;;26.80;10.73;;;;;;;-7.00;63.68;101858.58;125749;1099;104660;-77
2021/12/23 08:07:55;;;;;;;26.63;9.93;;;;;;;-6.96;62.97;101854.05;125717;1099;104162;-81
2021/12/23 08:10:27;;;;;;;25.47;10.10;;;;;;;-6.85;62.88;101857.06;125753;1099;104172;-79
2021/12/23 08:12:58;;;;;;;24.70;9.90;;;;;;;-6.80;63.13;101858.55;125710;1099;104166;-79
2021/12/23 08:15:26;;;;;;;26.33;9.27;;;;;;;-6.76;62.56;101850.53;125981;1099;104213;-77
2021/12/23 08:17:59;;;;;;;23.27;9.57;;;;;;;-6.70;63.10;101856.41;125896;1097;104189;-79
2021/12/23 08:20:32;;;;;;;25.77;10.37;;;;;;;-6.56;63.58;101859.08;125815;1099;104162;-80
2021/12/23 08:23:07;;;;;;;29.17;10.10;;;;;;;-6.46;63.17;101853.47;125781;1099;104179;-81
2021/12/23 08:25:36;;;;;;;26.70;10.80;;;;;;;-6.30;64.08;101848.62;125887;1099;104188;-81
2021/12/23 08:28:10;;;;;;;25.67;9.37;;;;;;;-6.15;64.16;101842.84;126112;1099;104149;-80
2021/12/23 08:30:41;;;;;;;24.63;10.40;;;;;;;-6.06;63.49;101849.81;126116;1099;105450;-83
2021/12/23 08:33:17;;;;;;;26.67;10.40;;;;;;;-5.99;63.71;101845.64;125818;1099;104239;-81
2021/12/23 08:35:50;;;;;;;29.30;10.20;;;;;;;-5.86;63.60;101848.05;126167;1099;104178;-83
2021/12/23 08:38:51;;;;;;;21.73;9.17;;;;;;;-5.74;63.97;101837.48;126178;1099;104170;-87
2021/12/23 08:41:28;;;;;;;27.47;10.10;;;;;;;-5.78;63.27;101836.17;126012;1099;104166;-86
2021/12/23 08:44:01;;;;;;;26.77;11.30;;;;;;;-5.80;63.41;101833.45;126084;1099;104379;-80
2021/12/23 08:46:34;;;;;;;;;;;;;;;-5.79;63.49;101829.25;126223;1099;104223;-84
2021/12/23 08:49:23;;;;;;;34.07;13.83;;;;;;;-5.86;62.95;101832.71;126084;1099;102762;-82
2021/12/23 08:52:00;;;;;;;33.70;13.60;;;;;;;-5.78;63.89;101820.83;125955;1099;111170;-84
2021/12/23 08:54:34;;;;;;;25.80;10.80;;;;;;;-5.65;63.27;101819.05;125212;1099;104213;-83
2021/12/23 08:57:08;;;;;;;;;;;;;;;-5.68;62.39;101812.66;125934;1099;104210;-83
2021/12/23 08:59:50;;;;;;;26.65;9.70;;;;;;;-5.71;62.67;101804.61;125248;1099;104357;-85
2021/12/23 09:02:22;;;;;;;23.83;8.93;;;;;;;-5.75;63.18;101803.30;125973;1098;104378;-84
2021/12/23 09:05:04;;;;;;;26.63;9.00;;;;;;;-5.70;63.03;101808.97;126010;1099;104168;-84
2021/12/23 09:07:47;;;;;;;27.53;10.30;;;;;;;-5.73;63.19;101809.53;125334;1099;104213;-83
2021/12/23 09:10:19;;;;;;;;;;;;;;;-5.72;62.96;101800.21;125374;1099;104229;-82
2021/12/23 09:12:54;;;;;;;27.73;9.50;;;;;;;-5.68;63.07;101790.54;126036;1099;104139;-82
2021/12/23 09:15:27;;;;;;;23.43;8.60;;;;;;;-5.56;63.39;101780.89;125764;1099;104194;-82
2021/12/23 09:18:06;;;;;;;27.40;9.47;;;;;;;-5.51;63.22;101782.34;125352;1099;104229;-82
2021/12/23 09:20:38;;;;;;;25.13;9.07;;;;;;;-5.50;61.51;101775.56;126185;1099;104168;-84
2021/12/23 09:23:12;;;;;;;23.83;10.00;;;;;;;-5.52;61.44;101769.37;126261;1099;104306;-81
2021/12/23 09:25:58;;;;;;;22.10;9.10;;;;;;;-5.45;62.23;101762.61;125311;1102;104198;-84
2021/12/23 09:28:41;;;;;;;22.60;8.17;;;;;;;-5.36;62.16;101760.25;125430;1099;104256;-83
2021/12/23 09:34:12;;;;;;;23.60;8.50;;;;;;;-5.16;62.56;101759.11;126182;1099;101729;-81
2021/12/23 09:36:45;;;;;;;26.93;8.87;;;;;;;-5.04;62.93;101750.33;125942;1099;104200;-82
2021/12/23 09:39:18;;;;;;;23.70;7.30;;;;;;;-4.96;61.69;101748.66;125755;1099;101888;-81
2021/12/23 09:41:52;;;;;;;20.00;7.42;;;;;;;-4.99;62.00;101746.64;126219;1099;104149;-81
2021/12/23 09:44:28;;;;;;;18.85;7.50;;;;;;;-5.02;61.47;101743.73;125948;1099;104157;-80
2021/12/23 09:47:02;;;;;;;18.27;6.97;;;;;;;-5.02;61.34;101735.14;125801;1099;104200;-82
2021/12/23 09:49:34;;;;;;;22.60;7.40;;;;;;;-5.04;61.22;101739.19;125955;1099;102197;-82
2021/12/23 09:52:11;;;;;;;25.07;8.97;;;;;;;-5.07;61.13;101732.95;125941;1099;104152;-83
2021/12/23 09:54:44;;;;;;;23.57;8.87;;;;;;;-5.07;60.98;101734.61;126054;1099;104146;-84
2021/12/23 09:57:18;;;;;;;20.70;8.13;;;;;;;-5.04;62.04;101726.38;126125;1099;104146;-83
2021/12/23 09:59:51;;;;;;;27.13;8.50;;;;;;;-4.91;62.03;101722.88;125721;1099;104685;-82
2021/12/23 10:02:23;;;;;;;25.67;8.77;;;;;;;-4.74;61.82;101717.13;126099;1099;104219;-82
2021/12/23 10:05:02;;;;;;;24.27;8.60;;;;;;;-4.59;61.82;101722.22;125827;1099;104171;-82
2021/12/23 10:07:40;;;;;;;27.00;8.50;;;;;;;-4.47;61.61;101722.70;125975;1099;104208;-82
2021/12/23 10:10:15;;;;;;;22.67;8.87;;;;;;;-4.44;61.69;101711.17;126126;1099;104582;-80
2021/12/23 10:38:45;;;;;;;22.37;8.97;;;;;;;-4.09;61.76;101657.86;125031;1102;104217;-81
2021/12/23 10:41:19;;;;;;;28.57;10.65;;;;;;;-4.03;61.39;101650.85;125062;1102;104326;-81
2021/12/23 10:43:55;;;;;;;28.10;9.20;;;;;;;-3.94;61.85;101655.17;125063;1102;104776;-79
2021/12/23 10:46:28;;;;;;;23.50;8.97;;;;;;;-3.87;61.99;101648.34;125093;1102;104187;-77
2021/12/23 10:49:14;;;;;;;22.30;8.20;;;;;;;-3.80;61.85;101642.27;125041;1102;104336;-79
2021/12/23 10:52:10;;;;;;;27.97;9.33;;;;;;;-3.75;62.07;101640.20;125143;1102;104146;-78
2021/12/23 11:00:31;;;;;;;23.10;8.43;;;;;;;-3.63;61.28;101632.20;125156;1102;104149;-80
2021/12/23 11:03:12;;;;;;;23.15;8.38;;;;;;;-3.61;61.44;101623.01;125108;1099;104328;-81
2021/12/23 11:05:56;;;;;;;24.07;8.60;;;;;;;-3.59;61.42;101620.61;125190;1102;104229;-81
2021/12/23 11:08:43;;;;;;;;;;;;;;;-3.54;61.23;101619.45;126106;1099;104219;-81
2021/12/23 11:11:34;;;;;;;24.12;9.08;;;;;;;-3.50;61.51;101613.92;125978;1099;104203;-80
2021/12/23 11:29:43;;;;;;;26.23;9.77;;;;;;;-3.65;59.99;101590.05;125647;1099;104342;-84
2021/12/23 11:37:58;;;;;;;28.63;10.50;;;;;;;-3.47;61.06;101577.43;125699;1099;104158;-82
2021/12/23 11:40:59;;;;;;;26.03;10.93;;;;;;;-3.45;60.24;101586.20;125710;1099;104290;-83
2021/12/23 11:43:50;;;;;;;28.30;9.13;;;;;;;-3.50;60.73;101580.56;125106;1100;102228;-82
2021/12/23 11:46:24;;;;;;;27.87;10.30;;;;;;;-3.51;60.25;101573.59;125862;1099;104169;-83
2021/12/23 11:49:07;;;;;;;23.70;9.07;;;;;;;-3.51;60.09;101570.13;126018;1099;104155;-83
2021/12/23 11:51:53;;;;;;;24.37;8.93;;;;;;;-3.51;59.96;101572.70;125963;1099;104207;-82
2021/12/23 11:54:28;;;;;;;27.63;10.33;;;;;;;-3.51;60.13;101568.47;126050;1099;104155;-81
2021/12/23 11:57:16;;;;;;;28.93;10.10;;;;;;;-3.47;60.31;101567.17;126224;1099;104280;-83
2021/12/23 12:00:15;;;;;;;25.03;10.27;;;;;;;-3.44;60.09;101565.83;126152;1099;104258;-81
2021/12/23 12:02:57;;;;;;;23.20;9.23;;;;;;;-3.40;60.35;101558.47;126044;1098;101667;-83
2021/12/23 12:05:27;;;;;;;25.47;9.23;;;;;;;-3.37;60.69;101561.36;125987;1099;105293;-79
2021/12/23 12:08:21;;;;;;;27.83;9.20;;;;;;;-3.34;59.78;101561.70;126134;1099;104175;-79
2021/12/23 12:10:50;;;;;;;24.47;10.03;;;;;;;-3.32;59.82;101555.99;125851;1099;104143;-80
2021/12/23 12:13:31;;;;;;;24.30;8.90;;;;;;;-3.29;60.40;101558.89;125971;1099;104189;-80
2021/12/23 12:16:03;;;;;;;22.83;8.87;;;;;;;-3.27;60.03;101557.39;126228;1099;104191;-79
2021/12/23 12:18:46;;;;;;;27.00;9.00;;;;;;;-3.26;59.54;101551.52;125366;1099;104151;-80
2021/12/23 12:21:28;;;;;;;25.27;8.68;;;;;;;-3.23;59.63;101550.02;125996;1099;102893;-80
2021/12/23 12:24:16;;;;;;;24.27;8.87;;;;;;;-3.21;60.07;101544.31;125775;1098;104213;-79